Forside
METAR-TAF:

METAR-TAF

Lufthavne :

Charles City, Iowa, USA

Breddekreds: 43-04N, længdekreds: 092-37W, højde: 343 m

Aktuelle vejr

Denne rapport blev lavet for 10 minutter siden, kl. 12:15 UTC
Vind 15 kt fra sydøst med vindstød på up til 20 kt
Temperatur 1°C
Fugtighed 100%
Tryk 1016 hPa
Sigt: 4.0 km
Overskyet i en højde af 400 ft
let sne

METAR: KCCY 241215Z AUTO 14015G20KT 2 1/2SM -SN OVC004 01/01 A3001 RMK AO2

Tid: 06:25 (12:25 UTC)


TAF: fraværende

Vejrobservationer og prognoser fra mere end 4000 lufthavne (METAR og TAF).

De gule og røde prikker repræsenterer de meteorologiske stationer.

Flyt musen over at se navnet på stationen.

Så klik over at se vejr observationer og prognoser.

At skifte det kort: Klik på de grønne knapper med et sort kors for at zoome ind; på den grønne knap med en bindestreg for at zoome ud; eller på de grønne pile for tilstødende kort.


METAR-TAF: